Terminal Aerodrome Forecast
Issued by NWS

Home | Current Version | Previous Version | Graphics & Text | Print | Product List | Glossary On
Versions: 1 2 3 4 5 6 7 8 9 10 11 12 13
000
FTUS43 KICT 290534
TAFCNU
TAF
KCNU 290534Z 2906/3006 30010KT P6SM SCT250
     FM290800 32012KT P6SM SCT250
     FM291200 35014G20KT P6SM BKN035
     FM291500 35018G25KT P6SM BKN035
     FM300000 35007KT P6SM SCT035=

USA.gov is the U.S. government's official web portal to all federal, state and local government web resources and services.